Togiak, Alaska
Current Conditions -  °F | °C
As of 5:16 PM on Sunday 25 Jan 2015 (Local Time) from PATG Reporting Station
Clear Clear  
Wind Chill: -6°   Ceiling: Unl
Heat Index:   Visibility: 10mi
Dew Point: -2°   Wind: 5mph
Humidity: 78%   Direction: 30°NNE
Pressure: 29.97"   Gusts: NA
Location:  59.07°N, 160.39°W
Report Text: PATG 260216Z AUTO 03004KT 10SM CLR M16/M19 A2997 RMK AO1
Loading
Personal Weather Stations






























Interactive Weather Map New forecast layout! Learn more

10-Day Weather Forecast

Advertisements
Track Severe Weather on mobile